Time;durP1;ratioP1;P1;durP2;ratioP2;P2;SDS_P1;SDS_P2;PMS_P1;PMS_P2;Temp;Humidity;BMP_temperature;BMP_pressure;BME280_temperature;BME280_humidity;BME280_pressure;Samples;Min_cycle;Max_cycle;Signal;HPM_P1;HPM_P2
2022/10/06 00:00:27;;;;;;;9.60;3.83;;;18.40;99.90;;;;;;5025409;28;20463;-66
2022/10/06 00:02:53;;;;;;;4.63;2.70;;;18.40;99.90;;;;;;5002812;28;20188;-66
2022/10/06 00:05:19;;;;;;;4.53;2.97;;;18.40;99.90;;;;;;5023106;28;20225;-66
2022/10/06 00:07:44;;;;;;;4.53;3.00;;;18.50;99.90;;;;;;5023727;28;20189;-65
2022/10/06 00:10:10;;;;;;;3.23;2.93;;;18.40;99.90;;;;;;5022856;28;20180;-66
2022/10/06 00:12:41;;;;;;;3.97;3.20;;;18.40;99.90;;;;;;5024133;28;20216;-65
2022/10/06 00:15:08;;;;;;;6.67;3.20;;;18.40;99.90;;;;;;5024957;28;20193;-65
2022/10/06 00:17:33;;;;;;;4.50;2.83;;;18.40;99.90;;;;;;5023284;28;20509;-66
2022/10/06 00:19:59;;;;;;;5.97;3.47;;;18.40;99.90;;;;;;5006656;28;20937;-66
2022/10/06 00:22:24;;;;;;;4.80;3.57;;;18.40;99.90;;;;;;5020977;28;20176;-66
2022/10/06 00:24:50;;;;;;;3.90;3.20;;;18.40;99.90;;;;;;5025063;28;20530;-66
2022/10/06 00:27:16;;;;;;;6.63;3.60;;;18.40;99.90;;;;;;5022541;28;20184;-66
2022/10/06 00:29:41;;;;;;;4.57;2.80;;;18.50;99.90;;;;;;5022560;28;20185;-66
2022/10/06 00:32:08;;;;;;;6.60;3.50;;;18.50;99.90;;;;;;5023672;28;20547;-66
2022/10/06 00:34:37;;;;;;;4.83;3.50;;;18.60;99.90;;;;;;5025825;28;20212;-66
2022/10/06 00:37:03;;;;;;;11.47;3.70;;;18.60;99.90;;;;;;5022382;28;20504;-66
2022/10/06 00:39:29;;;;;;;4.10;3.20;;;18.60;99.90;;;;;;5021847;28;21035;-66
2022/10/06 00:41:54;;;;;;;6.60;3.57;;;18.60;99.90;;;;;;5022213;28;20184;-66
2022/10/06 00:44:20;;;;;;;4.33;3.23;;;18.50;99.90;;;;;;5024275;28;20216;-65
2022/10/06 00:46:49;;;;;;;3.93;3.20;;;18.50;99.90;;;;;;5023693;28;20192;-66
2022/10/06 00:49:17;;;;;;;5.87;3.57;;;18.50;99.90;;;;;;5022255;28;20229;-65
2022/10/06 00:51:48;;;;;;;5.77;3.17;;;18.50;99.90;;;;;;5024585;28;20462;-67
2022/10/06 00:54:15;;;;;;;4.47;3.37;;;18.50;99.90;;;;;;5023799;28;20513;-66
2022/10/06 00:56:41;;;;;;;4.30;3.10;;;18.40;99.90;;;;;;5025408;28;20442;-66
2022/10/06 00:59:11;;;;;;;5.90;3.50;;;18.40;99.90;;;;;;5025716;28;20470;-67
2022/10/06 01:01:40;;;;;;;5.03;3.57;;;18.40;99.90;;;;;;5021948;28;20187;-67
2022/10/06 01:04:10;;;;;;;3.87;3.00;;;18.30;99.90;;;;;;5021321;28;20872;-66
2022/10/06 01:06:44;;;;;;;5.73;3.30;;;18.20;99.90;;;;;;5022709;28;20622;-66
2022/10/06 01:09:12;;;;;;;4.33;3.10;;;18.20;99.90;;;;;;5019651;28;20437;-66
2022/10/06 01:11:38;;;;;;;10.10;3.60;;;18.20;99.90;;;;;;5022736;28;20430;-66
2022/10/06 01:14:04;;;;;;;5.03;3.30;;;18.20;99.90;;;;;;5019454;28;20512;-65
2022/10/06 01:16:33;;;;;;;4.00;3.43;;;18.20;99.90;;;;;;5022478;28;20181;-65
2022/10/06 01:19:01;;;;;;;4.77;3.60;;;18.20;99.90;;;;;;5021648;28;20192;-67
2022/10/06 01:21:39;;;;;;;4.77;3.70;;;18.20;99.90;;;;;;5024160;28;20953;-64
2022/10/06 01:24:04;;;;;;;5.03;3.53;;;18.10;99.90;;;;;;5022886;28;20454;-65
2022/10/06 01:26:32;;;;;;;7.83;3.57;;;18.10;99.90;;;;;;5022942;28;20519;-66
2022/10/06 01:28:58;;;;;;;4.80;4.00;;;18.10;99.90;;;;;;5022472;28;20207;-67
2022/10/06 01:31:24;;;;;;;5.07;3.63;;;18.10;99.90;;;;;;5022537;28;20439;-65
2022/10/06 01:33:52;;;;;;;4.93;3.77;;;18.20;99.90;;;;;;5021143;28;20211;-66
2022/10/06 01:36:17;;;;;;;5.70;3.47;;;18.10;99.90;;;;;;5022710;28;20500;-66
2022/10/06 01:38:43;;;;;;;7.00;3.87;;;18.10;99.90;;;;;;5020831;28;20474;-66
2022/10/06 01:41:08;;;;;;;5.10;3.70;;;18.00;99.90;;;;;;5021422;28;20232;-66
2022/10/06 01:43:34;;;;;;;5.40;3.97;;;18.00;99.90;;;;;;5025779;28;20207;-66
2022/10/06 01:46:00;;;;;;;4.93;3.50;;;18.00;99.90;;;;;;5021983;28;20184;-66
2022/10/06 01:48:26;;;;;;;3.60;3.10;;;18.00;99.90;;;;;;5023921;28;20188;-66
2022/10/06 01:50:52;;;;;;;6.50;3.77;;;17.90;99.90;;;;;;5020740;28;20435;-66
2022/10/06 01:53:18;;;;;;;4.90;3.50;;;17.90;99.90;;;;;;5021687;28;20512;-66
2022/10/06 01:55:45;;;;;;;6.40;3.20;;;17.90;99.90;;;;;;5020460;28;20447;-66
2022/10/06 01:58:11;;;;;;;4.60;3.30;;;17.90;99.90;;;;;;5022822;28;20627;-65
2022/10/06 02:00:37;;;;;;;12.87;3.53;;;17.90;99.90;;;;;;5027477;28;20453;-66
2022/10/06 02:03:02;;;;;;;6.80;3.60;;;17.90;99.90;;;;;;5028571;28;20446;-66
2022/10/06 02:05:28;;;;;;;8.13;3.30;;;18.00;99.90;;;;;;5029129;28;20458;-65
2022/10/06 02:07:54;;;;;;;4.83;3.60;;;18.00;99.90;;;;;;5028706;28;20199;-66
2022/10/06 02:10:19;;;;;;;6.03;3.47;;;18.00;99.90;;;;;;5030672;28;20288;-65
2022/10/06 02:12:50;;;;;;;6.63;4.00;;;18.00;99.90;;;;;;5026832;28;20227;-66
2022/10/06 02:15:16;;;;;;;4.50;2.97;;;18.10;99.90;;;;;;5025998;28;20357;-66
2022/10/06 02:17:41;;;;;;;3.97;3.50;;;18.10;99.90;;;;;;5029582;28;21209;-66
2022/10/06 02:20:07;;;;;;;3.80;3.20;;;18.10;99.90;;;;;;5028569;28;20803;-66
2022/10/06 02:22:38;;;;;;;3.50;3.03;;;18.10;99.90;;;;;;5025806;28;20177;-66
2022/10/06 02:25:04;;;;;;;6.07;3.00;;;18.20;99.90;;;;;;5028547;28;20482;-66
2022/10/06 02:27:29;;;;;;;9.80;4.17;;;18.10;99.90;;;;;;5028668;28;20484;-66
2022/10/06 02:29:55;;;;;;;5.70;3.33;;;18.20;99.90;;;;;;5025681;28;20443;-66
2022/10/06 02:32:21;;;;;;;4.73;3.13;;;18.20;99.90;;;;;;5028845;28;20231;-66
2022/10/06 02:34:46;;;;;;;5.60;3.53;;;18.10;99.90;;;;;;5030322;28;20204;-66
2022/10/06 02:37:14;;;;;;;5.30;3.27;;;18.00;99.90;;;;;;5029273;28;20949;-66
2022/10/06 02:39:40;;;;;;;6.30;3.17;;;18.00;99.90;;;;;;5030243;28;20307;-66
2022/10/06 02:42:06;;;;;;;4.37;3.30;;;18.00;99.90;;;;;;5028074;28;20510;-66
2022/10/06 02:44:31;;;;;;;5.57;3.80;;;18.00;99.90;;;;;;5028292;28;20200;-66
2022/10/06 02:46:58;;;;;;;4.07;3.13;;;18.00;99.90;;;;;;5027962;28;20242;-66
2022/10/06 02:49:24;;;;;;;8.87;3.87;;;18.00;99.90;;;;;;5030367;28;20183;-66
2022/10/06 02:51:50;;;;;;;4.13;3.23;;;17.90;99.90;;;;;;5029245;28;20427;-66
2022/10/06 02:54:16;;;;;;;7.07;3.47;;;17.90;99.90;;;;;;5029670;28;20259;-66
2022/10/06 02:56:41;;;;;;;11.00;4.03;;;17.90;99.90;;;;;;5029641;28;20815;-66
2022/10/06 02:59:07;;;;;;;4.67;3.60;;;17.90;99.90;;;;;;5029135;28;20311;-66
2022/10/06 03:01:32;;;;;;;4.80;3.60;;;18.00;99.90;;;;;;5027915;28;20181;-66
2022/10/06 03:03:58;;;;;;;4.40;3.37;;;18.00;99.90;;;;;;5029418;28;20208;-67
2022/10/06 03:06:29;;;;;;;5.07;4.17;;;17.90;99.90;;;;;;5029302;28;20188;-65
2022/10/06 03:08:58;;;;;;;6.50;3.43;;;17.90;99.90;;;;;;5029209;28;20705;-65
2022/10/06 03:11:29;;;;;;;9.97;3.67;;;17.80;99.90;;;;;;5006002;28;21017;-67
2022/10/06 03:13:56;;;;;;;4.10;3.30;;;17.80;99.90;;;;;;5022009;28;20454;-66
2022/10/06 03:16:27;;;;;;;6.03;3.70;;;17.80;99.90;;;;;;5027041;28;20825;-66
2022/10/06 03:18:54;;;;;;;5.30;3.50;;;17.70;99.90;;;;;;5022451;28;21113;-66
2022/10/06 03:21:26;;;;;;;5.80;3.50;;;17.80;99.90;;;;;;5022510;28;20431;-66
2022/10/06 03:23:53;;;;;;;5.10;3.93;;;17.80;99.90;;;;;;5026431;28;20489;-66
2022/10/06 03:26:21;;;;;;;4.20;3.63;;;17.80;99.90;;;;;;5023837;28;20435;-66
2022/10/06 03:28:47;;;;;;;5.43;3.83;;;17.70;99.90;;;;;;5023425;28;20438;-66
2022/10/06 03:31:14;;;;;;;5.13;3.60;;;17.80;99.90;;;;;;5024870;28;20439;-66
2022/10/06 03:33:40;;;;;;;7.07;4.57;;;17.80;99.90;;;;;;5026468;28;20795;-66
2022/10/06 03:36:10;;;;;;;10.80;4.20;;;17.70;99.90;;;;;;5025701;28;20576;-65
2022/10/06 03:38:36;;;;;;;4.80;4.30;;;17.80;99.90;;;;;;5022526;28;20208;-66
2022/10/06 03:41:15;;;;;;;6.67;3.70;;;17.90;99.90;;;;;;5024945;28;20434;-66
2022/10/06 03:43:42;;;;;;;7.53;4.50;;;17.80;99.90;;;;;;5027708;28;20438;-66
2022/10/06 03:46:10;;;;;;;5.90;3.80;;;17.80;99.90;;;;;;5022540;28;20431;-66
2022/10/06 03:48:35;;;;;;;5.10;4.03;;;17.80;99.90;;;;;;5025508;28;20423;-67
2022/10/06 03:51:04;;;;;;;7.00;4.07;;;17.80;99.90;;;;;;5023456;28;20501;-66
2022/10/06 03:53:30;;;;;;;7.13;4.00;;;17.90;99.90;;;;;;5024371;28;20204;-66
2022/10/06 03:56:10;;;;;;;4.90;3.83;;;17.90;99.90;;;;;;5023437;28;20420;-67
2022/10/06 03:58:37;;;;;;;5.10;3.77;;;17.90;99.90;;;;;;5025004;28;20977;-66
2022/10/06 04:01:03;;;;;;;9.73;4.27;;;17.90;99.90;;;;;;5024012;28;20407;-67
2022/10/06 04:03:29;;;;;;;11.50;4.90;;;17.90;99.90;;;;;;5028402;28;20442;-66
2022/10/06 04:05:56;;;;;;;8.23;4.10;;;17.90;99.90;;;;;;5026462;28;20561;-66
2022/10/06 04:08:23;;;;;;;8.37;4.53;;;17.90;99.90;;;;;;5022393;28;21581;-66
2022/10/06 04:10:49;;;;;;;6.47;4.77;;;17.90;99.90;;;;;;5025270;28;20411;-67
2022/10/06 04:13:16;;;;;;;10.50;5.53;;;17.80;99.90;;;;;;5024124;28;20957;-66
2022/10/06 04:15:42;;;;;;;5.07;4.33;;;17.90;99.90;;;;;;5024510;28;20856;-67
2022/10/06 04:18:07;;;;;;;5.50;4.33;;;17.90;99.90;;;;;;5024576;28;20521;-66
2022/10/06 04:20:33;;;;;;;10.27;4.93;;;17.90;99.90;;;;;;5024655;28;20535;-66
2022/10/06 04:22:59;;;;;;;6.20;3.90;;;17.90;99.90;;;;;;5021568;28;20176;-66
2022/10/06 04:25:24;;;;;;;5.10;3.57;;;18.00;99.90;;;;;;5026426;28;20654;-65
2022/10/06 04:27:50;;;;;;;4.97;4.27;;;18.00;99.90;;;;;;5024911;28;20724;-65
2022/10/06 04:30:15;;;;;;;7.00;4.27;;;17.90;99.90;;;;;;5024427;28;20661;-66
2022/10/06 04:32:41;;;;;;;5.03;4.03;;;17.90;99.90;;;;;;5023036;28;20811;-67
2022/10/06 04:35:07;;;;;;;9.60;4.37;;;17.80;99.90;;;;;;5023043;28;20586;-66
2022/10/06 04:37:32;;;;;;;5.90;4.87;;;17.80;99.90;;;;;;5023297;28;20191;-67
2022/10/06 04:39:58;;;;;;;10.33;4.60;;;17.90;99.90;;;;;;5023643;28;20717;-67
2022/10/06 04:42:23;;;;;;;7.70;4.50;;;17.90;99.90;;;;;;5024689;28;20608;-66
2022/10/06 04:44:49;;;;;;;7.40;4.20;;;17.90;99.90;;;;;;5023229;28;20189;-66
2022/10/06 04:47:15;;;;;;;6.37;4.97;;;18.00;99.90;;;;;;5000998;28;20176;-66
2022/10/06 04:49:40;;;;;;;11.90;4.60;;;18.00;99.90;;;;;;5024178;28;20184;-66
2022/10/06 04:52:06;;;;;;;9.03;4.83;;;18.00;99.90;;;;;;5023323;28;20216;-67
2022/10/06 04:54:31;;;;;;;7.40;5.37;;;18.00;99.90;;;;;;5023320;28;20228;-66
2022/10/06 04:56:57;;;;;;;9.00;5.23;;;18.00;99.90;;;;;;5021155;28;20189;-65
2022/10/06 05:00:21;;;;;;;7.77;4.80;;;18.00;99.90;;;;;;5022158;28;20219;-65
2022/10/06 05:02:08;;;;;;;7.10;4.40;;;18.00;99.90;;;;;;5019630;28;20176;-65
2022/10/06 05:04:34;;;;;;;8.20;4.90;;;18.00;99.90;;;;;;5022744;28;20801;-66
2022/10/06 05:07:00;;;;;;;6.60;4.70;;;17.90;99.90;;;;;;5022123;28;20241;-67
2022/10/06 05:09:26;;;;;;;7.23;4.30;;;18.00;99.90;;;;;;5025192;28;20272;-67
2022/10/06 05:11:52;;;;;;;8.50;4.67;;;18.00;99.90;;;;;;5021750;28;20532;-66
2022/10/06 05:14:17;;;;;;;7.00;5.03;;;18.00;99.90;;;;;;5023827;28;20246;-67
2022/10/06 05:16:43;;;;;;;5.80;4.33;;;18.00;99.90;;;;;;5018137;28;20188;-66
2022/10/06 05:19:08;;;;;;;6.13;4.27;;;17.90;99.90;;;;;;5024141;28;20265;-66
2022/10/06 05:21:34;;;;;;;4.60;4.03;;;17.90;99.90;;;;;;5019814;28;20263;-66
2022/10/06 05:24:01;;;;;;;5.07;4.33;;;17.90;99.90;;;;;;5020767;28;20567;-66
2022/10/06 05:26:29;;;;;;;9.70;4.23;;;17.80;99.90;;;;;;5016643;28;20196;-64
2022/10/06 05:28:55;;;;;;;10.63;4.37;;;17.80;99.90;;;;;;5006033;28;20435;-65
2022/10/06 05:31:23;;;;;;;6.27;4.00;;;17.70;99.90;;;;;;5022172;28;20462;-66
2022/10/06 05:33:49;;;;;;;7.60;4.90;;;17.70;99.90;;;;;;5021317;28;20558;-65
2022/10/06 05:36:22;;;;;;;6.53;4.10;;;17.60;99.90;;;;;;5020873;28;20463;-65
2022/10/06 05:38:48;;;;;;;7.80;4.70;;;17.60;99.90;;;;;;5022875;28;20792;-65
2022/10/06 05:41:22;;;;;;;6.50;4.37;;;17.60;99.90;;;;;;5018929;28;20944;-65
2022/10/06 05:43:48;;;;;;;7.10;4.27;;;17.60;99.90;;;;;;5021974;28;20269;-64
2022/10/06 05:46:19;;;;;;;7.57;4.40;;;17.60;99.90;;;;;;5019250;28;20434;-66
2022/10/06 05:48:48;;;;;;;9.40;4.20;;;17.50;99.90;;;;;;5004065;28;20730;-66
2022/10/06 05:51:14;;;;;;;7.13;4.30;;;17.40;99.90;;;;;;5021536;28;20514;-65
2022/10/06 05:53:40;;;;;;;6.57;4.17;;;17.40;99.90;;;;;;5003623;28;20566;-66
2022/10/06 05:56:09;;;;;;;6.40;3.30;;;17.40;99.90;;;;;;5001724;28;20458;-66
2022/10/06 05:58:37;;;;;;;9.10;4.10;;;17.40;99.90;;;;;;5022760;28;20499;-65
2022/10/06 06:01:16;;;;;;;5.27;3.77;;;17.40;99.90;;;;;;5016074;28;20676;-65
2022/10/06 06:03:46;;;;;;;5.50;3.93;;;17.40;99.90;;;;;;5018977;28;20455;-65
2022/10/06 06:06:23;;;;;;;4.90;3.10;;;17.40;99.90;;;;;;5020497;28;20435;-65
2022/10/06 06:08:55;;;;;;;6.33;3.37;;;17.30;99.90;;;;;;5003468;28;20450;-65
2022/10/06 06:11:25;;;;;;;6.93;3.97;;;17.30;99.90;;;;;;5020353;28;20427;-66
2022/10/06 06:13:52;;;;;;;4.67;3.73;;;17.30;99.90;;;;;;5019850;28;20473;-66
2022/10/06 06:16:17;;;;;;;9.53;3.40;;;17.30;99.90;;;;;;5020064;28;20439;-66
2022/10/06 06:18:43;;;;;;;5.60;3.70;;;17.30;99.90;;;;;;5019291;28;20469;-66
2022/10/06 06:21:09;;;;;;;7.87;3.70;;;17.30;99.90;;;;;;5018394;28;20204;-66
2022/10/06 06:23:40;;;;;;;7.20;3.10;;;17.40;99.90;;;;;;5004789;28;20204;-66
2022/10/06 06:26:17;;;;;;;3.00;2.50;;;17.40;99.90;;;;;;5018852;28;20435;-65
2022/10/06 06:28:45;;;;;;;4.87;2.83;;;17.40;99.90;;;;;;5017504;28;20423;-65
2022/10/06 06:31:12;;;;;;;4.63;3.37;;;17.40;99.90;;;;;;5017582;28;20827;-68
2022/10/06 06:33:39;;;;;;;5.47;3.10;;;17.30;99.90;;;;;;5020549;28;20553;-68
2022/10/06 06:36:17;;;;;;;5.83;2.97;;;17.30;99.90;;;;;;5021669;28;20431;-69
2022/10/06 06:38:46;;;;;;;6.50;2.70;;;17.40;99.90;;;;;;5022156;28;20470;-69
2022/10/06 06:41:22;;;;;;;4.93;2.87;;;17.40;99.90;;;;;;5018936;28;20467;-69
2022/10/06 06:43:48;;;;;;;3.80;2.80;;;17.40;99.90;;;;;;5018860;28;20442;-68
2022/10/06 06:46:16;;;;;;;5.87;2.70;;;17.40;99.90;;;;;;5020160;28;20431;-69
2022/10/06 06:48:42;;;;;;;6.33;3.03;;;17.50;99.90;;;;;;5025702;28;20411;-69
2022/10/06 06:51:12;;;;;;;4.93;2.50;;;17.60;99.90;;;;;;5024259;28;20936;-70
2022/10/06 06:53:38;;;;;;;7.83;3.57;;;17.60;99.90;;;;;;5025346;28;20466;-70
2022/10/06 06:56:07;;;;;;;4.23;2.60;;;17.50;99.90;;;;;;5023895;28;20434;-69
2022/10/06 06:58:33;;;;;;;6.00;2.97;;;17.60;99.90;;;;;;5022973;28;20466;-69
2022/10/06 07:01:12;;;;;;;8.80;2.43;;;17.50;99.90;;;;;;5022717;28;21159;-69
2022/10/06 07:03:39;;;;;;;4.57;2.60;;;17.30;99.90;;;;;;5023994;28;20439;-69
2022/10/06 07:06:10;;;;;;;7.50;2.83;;;17.30;99.90;;;;;;5017727;28;20496;-69
2022/10/06 07:08:38;;;;;;;7.93;2.77;;;17.40;99.90;;;;;;5021667;28;20521;-69
2022/10/06 07:11:16;;;;;;;7.27;3.50;;;17.40;99.90;;;;;;5023461;28;20787;-70
2022/10/06 07:13:41;;;;;;;5.70;2.60;;;17.50;99.90;;;;;;5022668;28;20525;-70
2022/10/06 07:27:16;;;;;;;5.07;2.43;;;17.60;99.90;;;;;;5021066;28;20458;-71
2022/10/06 07:29:43;;;;;;;5.40;2.47;;;17.70;99.90;;;;;;5005182;28;20431;-68
2022/10/06 07:32:09;;;;;;;5.00;2.47;;;17.70;99.90;;;;;;5020112;28;20517;-69
2022/10/06 07:34:36;;;;;;;3.40;2.00;;;17.60;99.90;;;;;;5020989;28;20488;-70
2022/10/06 07:37:01;;;;;;;6.17;2.00;;;17.40;99.90;;;;;;5022841;28;20181;-69
2022/10/06 07:39:27;;;;;;;6.80;2.80;;;17.40;99.90;;;;;;5024083;28;20487;-68
2022/10/06 07:41:52;;;;;;;5.40;2.40;;;17.40;99.90;;;;;;5023260;28;20267;-69
2022/10/06 07:44:18;;;;;;;5.70;2.10;;;17.50;99.90;;;;;;5023024;28;20200;-69
2022/10/06 07:46:44;;;;;;;11.73;2.30;;;17.60;99.90;;;;;;5023201;28;20263;-68
2022/10/06 07:49:09;;;;;;;4.30;2.00;;;17.60;99.90;;;;;;5014220;28;20184;-68
2022/10/06 07:51:35;;;;;;;4.33;2.50;;;17.60;99.90;;;;;;5023050;28;20214;-68
2022/10/06 07:54:01;;;;;;;4.27;2.50;;;17.70;99.90;;;;;;5017590;28;20708;-69
2022/10/06 07:56:27;;;;;;;4.47;2.33;;;17.70;99.90;;;;;;5016059;28;20189;-70
2022/10/06 07:58:52;;;;;;;6.43;2.23;;;17.80;99.90;;;;;;5005488;28;20546;-69
2022/10/06 08:01:19;;;;;;;11.57;3.83;;;17.80;99.90;;;;;;5022305;28;20172;-68
2022/10/06 08:03:47;;;;;;;5.37;3.10;;;18.00;99.90;;;;;;5022795;28;20596;-70
2022/10/06 08:06:16;;;;;;;7.97;3.50;;;18.00;99.90;;;;;;5022873;28;20955;-70
2022/10/06 08:08:43;;;;;;;3.60;1.90;;;18.10;99.90;;;;;;5021199;28;20497;-69
2022/10/06 08:11:10;;;;;;;4.37;1.87;;;18.30;99.90;;;;;;5023603;28;20446;-71
2022/10/06 08:13:38;;;;;;;4.77;2.70;;;18.30;99.90;;;;;;5018698;28;21014;-68
2022/10/06 08:16:13;;;;;;;4.80;3.10;;;18.30;99.90;;;;;;5005376;28;20816;-69
2022/10/06 08:18:39;;;;;;;3.07;2.00;;;18.30;99.90;;;;;;5018287;28;20737;-71
2022/10/06 08:21:17;;;;;;;3.50;2.17;;;18.30;99.90;;;;;;5016628;28;20439;-68
2022/10/06 08:23:45;;;;;;;5.47;2.30;;;18.50;99.90;;;;;;5019800;28;20460;-70
2022/10/06 08:26:12;;;;;;;6.40;1.83;;;18.40;99.90;;;;;;4999960;28;20443;-71
2022/10/06 08:28:39;;;;;;;7.77;2.27;;;18.40;99.90;;;;;;5021776;28;20530;-67
2022/10/06 08:31:12;;;;;;;9.70;3.37;;;18.50;99.90;;;;;;5017587;28;20885;-68
2022/10/06 08:33:38;;;;;;;5.33;2.57;;;18.60;99.90;;;;;;5020103;28;20463;-68
2022/10/06 08:36:10;;;;;;;6.53;2.60;;;18.50;99.90;;;;;;5019795;28;20441;-66
2022/10/06 08:38:36;;;;;;;6.13;2.37;;;18.50;99.90;;;;;;5021472;28;20463;-68
2022/10/06 08:41:18;;;;;;;9.30;2.73;;;18.60;99.90;;;;;;5020819;28;20493;-67
2022/10/06 08:43:55;;;;;;;4.70;1.80;;;18.70;99.90;;;;;;5020598;28;20474;-69
2022/10/06 08:46:26;;;;;;;6.33;2.50;;;18.80;99.90;;;;;;5020221;28;20569;-67
2022/10/06 08:48:52;;;;;;;6.47;2.20;;;18.80;99.90;;;;;;5023198;28;20415;-69
2022/10/06 08:51:24;;;;;;;8.00;2.33;;;18.80;99.90;;;;;;5002088;28;21037;-68
2022/10/06 08:54:02;;;;;;;3.53;2.23;;;18.90;99.90;;;;;;5019720;28;20456;-69
2022/10/06 08:56:34;;;;;;;9.50;2.70;;;18.90;99.90;;;;;;5019567;28;20419;-70
2022/10/06 08:59:03;;;;;;;7.10;2.40;;;19.00;99.90;;;;;;5021245;28;20621;-70
2022/10/06 09:01:50;;;;;;;5.40;2.10;;;19.10;99.90;;;;;;5019024;28;20500;-68
2022/10/06 09:04:27;;;;;;;4.83;2.10;;;19.30;99.90;;;;;;5001289;28;20651;-67
2022/10/06 09:07:11;;;;;;;5.27;2.30;;;19.20;99.90;;;;;;5017764;28;20857;-70
2022/10/06 09:09:46;;;;;;;7.17;2.43;;;19.00;99.90;;;;;;5017770;28;20770;-68
2022/10/06 09:12:34;;;;;;;7.30;2.57;;;19.00;99.90;;;;;;5016937;28;20430;-70
2022/10/06 09:15:11;;;;;;;9.93;2.63;;;19.10;99.90;;;;;;4999386;28;20445;-68
2022/10/06 09:17:53;;;;;;;5.77;2.00;;;19.30;99.90;;;;;;5018264;28;20834;-68
2022/10/06 09:20:24;;;;;;;8.17;2.77;;;19.20;99.90;;;;;;5017434;28;20453;-69
2022/10/06 09:22:50;;;;;;;4.53;2.23;;;19.20;99.90;;;;;;5021674;28;20462;-71
2022/10/06 09:25:26;;;;;;;7.20;2.43;;;19.10;99.90;;;;;;5018465;28;20622;-69
2022/10/06 09:27:54;;;;;;;4.90;2.47;;;19.30;99.90;;;;;;5020645;28;20411;-69
2022/10/06 09:30:20;;;;;;;5.53;2.37;;;19.30;99.90;;;;;;5017747;28;20476;-67
2022/10/06 09:33:03;;;;;;;5.13;2.60;;;19.30;99.90;;;;;;5022344;28;20861;-67
2022/10/06 09:35:31;;;;;;;6.50;2.00;;;19.30;99.90;;;;;;5017037;28;20610;-68
2022/10/06 09:38:02;;;;;;;7.23;2.60;;;19.30;99.90;;;;;;5012063;28;20575;-71
2022/10/06 09:40:50;;;;;;;5.03;2.43;;;19.20;99.90;;;;;;5021269;28;20976;-70
2022/10/06 09:43:21;;;;;;;12.70;2.60;;;19.20;99.90;;;;;;5019899;28;20416;-69
2022/10/06 09:45:50;;;;;;;4.23;2.23;;;19.30;99.90;;;;;;5004899;28;21471;-69
2022/10/06 09:48:23;;;;;;;10.70;3.10;;;19.40;99.90;;;;;;5018496;28;20940;-67
2022/10/06 09:51:14;;;;;;;7.13;3.63;;;19.50;99.90;;;;;;5019810;28;20415;-67
2022/10/06 09:54:01;;;;;;;9.80;3.37;;;19.60;99.90;;;;;;5013835;28;20462;-64
2022/10/06 09:56:30;;;;;;;6.20;2.47;;;19.80;99.90;;;;;;5013020;28;20831;-64
2022/10/06 09:58:58;;;;;;;10.70;3.27;;;20.00;99.90;;;;;;5018166;28;20509;-64
2022/10/06 10:01:28;;;;;;;6.23;2.30;;;20.20;99.90;;;;;;5018338;28;20415;-64
2022/10/06 10:03:59;;;;;;;4.70;2.33;;;20.30;99.90;;;;;;5017097;28;20458;-66
2022/10/06 10:06:33;;;;;;;6.77;2.63;;;20.40;99.90;;;;;;5016235;28;20926;-65
2022/10/06 10:09:20;;;;;;;4.53;2.80;;;20.60;99.90;;;;;;5019411;28;20414;-64
2022/10/06 10:12:28;;;;;;;6.80;2.67;;;20.60;99.90;;;;;;5015635;28;20821;-65
2022/10/06 10:15:24;;;;;;;8.13;2.83;;;20.60;99.90;;;;;;4999867;28;20554;-65
2022/10/06 10:17:54;;;;;;;6.90;2.93;;;20.60;99.90;;;;;;5017218;28;20445;-66
2022/10/06 10:20:49;;;;;;;6.27;2.60;;;20.50;99.90;;;;;;5017436;28;20443;-67
2022/10/06 10:23:28;;;;;;;4.97;3.20;;;20.20;99.90;;;;;;5022405;28;20422;-67
2022/10/06 10:26:16;;;;;;;9.03;3.17;;;20.20;99.90;;;;;;5006008;28;20659;-67
2022/10/06 10:28:53;;;;;;;7.10;2.60;;;20.00;99.90;;;;;;5024095;28;20427;-67
2022/10/06 10:31:31;;;;;;;5.90;3.43;;;20.10;99.90;;;;;;5022384;28;21046;-67
2022/10/06 10:34:09;;;;;;;6.40;3.10;;;20.10;99.90;;;;;;5025151;28;21014;-66
2022/10/06 10:37:15;;;;;;;5.03;2.60;;;20.00;99.90;;;;;;5024363;28;20431;-66
2022/10/06 10:40:03;;;;;;;13.13;2.97;;;19.90;99.90;;;;;;5014085;28;20897;-66
2022/10/06 10:42:42;;;;;;;4.93;2.50;;;20.00;99.90;;;;;;5018502;28;20439;-68
2022/10/06 10:45:18;;;;;;;11.63;4.83;;;20.20;99.90;;;;;;5024808;28;20747;-67
2022/10/06 10:47:45;;;;;;;4.73;2.30;;;20.40;99.90;;;;;;5024559;28;20415;-66
2022/10/06 10:50:25;;;;;;;6.73;2.70;;;20.40;99.90;;;;;;5022929;28;20419;-68
2022/10/06 10:52:55;;;;;;;5.27;2.63;;;20.50;99.90;;;;;;5023987;28;20477;-66
2022/10/06 10:55:29;;;;;;;5.23;2.30;;;20.40;99.90;;;;;;5024823;28;20485;-67
2022/10/06 10:58:02;;;;;;;5.93;2.63;;;20.20;99.90;;;;;;5024403;28;20798;-67
2022/10/06 11:00:32;;;;;;;6.73;2.87;;;20.20;99.90;;;;;;5021423;28;20424;-67
2022/10/06 11:03:00;;;;;;;11.60;2.80;;;20.30;99.90;;;;;;5023291;28;20454;-71
2022/10/06 11:05:45;;;;;;;8.83;3.07;;;20.30;99.90;;;;;;5023389;28;20453;-70
2022/10/06 11:08:21;;;;;;;5.30;2.67;;;20.30;99.90;;;;;;5021407;28;20427;-67
2022/10/06 11:10:50;;;;;;;5.40;2.53;;;20.60;99.90;;;;;;5020124;28;20418;-69
2022/10/06 11:13:27;;;;;;;5.67;2.37;;;20.70;99.90;;;;;;5023645;28;20792;-68
2022/10/06 11:16:30;;;;;;;6.03;2.90;;;20.80;99.90;;;;;;5022355;28;21079;-70
2022/10/06 11:19:04;;;;;;;6.10;2.53;;;20.80;99.90;;;;;;5023864;28;20461;-69
2022/10/06 11:21:39;;;;;;;10.63;2.90;;;20.90;99.90;;;;;;5021725;28;20819;-68
2022/10/06 11:24:14;;;;;;;4.43;2.03;;;21.00;99.90;;;;;;5022759;28;20457;-68
2022/10/06 11:26:48;;;;;;;7.40;2.17;;;20.90;99.90;;;;;;5024175;28;20798;-69
2022/10/06 11:29:36;;;;;;;10.07;2.80;;;20.90;99.90;;;;;;5001812;28;20431;-68
2022/10/06 11:32:10;;;;;;;8.97;2.77;;;21.00;99.90;;;;;;5021875;28;20424;-69
2022/10/06 11:34:37;;;;;;;6.73;2.90;;;20.80;99.90;;;;;;5020843;28;20761;-69
2022/10/06 11:37:22;;;;;;;11.53;2.80;;;20.70;99.90;;;;;;5001788;28;20435;-69
2022/10/06 11:40:13;;;;;;;5.50;2.30;;;20.80;99.90;;;;;;5022929;28;20546;-68
2022/10/06 11:43:11;;;;;;;2.70;1.90;;;21.00;99.90;;;;;;4984482;28;20431;-68
2022/10/06 11:45:58;;;;;;;7.77;2.57;;;21.20;99.90;;;;;;5009755;28;20429;-67
2022/10/06 11:48:29;;;;;;;6.20;3.70;;;21.40;99.90;;;;;;5000104;28;20439;-68
2022/10/06 11:51:19;;;;;;;6.20;2.60;;;21.40;99.90;;;;;;5023081;28;20932;-67
2022/10/06 11:53:45;;;;;;;6.93;2.77;;;21.60;99.90;;;;;;5022726;28;20549;-69
2022/10/06 11:56:16;;;;;;;6.20;2.30;;;22.20;99.90;;;;;;5019608;28;20526;-68
2022/10/06 11:58:54;;;;;;;6.00;2.67;;;22.70;99.90;;;;;;5019099;28;20208;-68
2022/10/06 12:01:35;;;;;;;6.60;2.80;;;23.10;99.90;;;;;;4997529;28;20442;-68
2022/10/06 12:04:09;;;;;;;10.63;2.67;;;23.70;99.90;;;;;;5042312;22;20494;-71
2022/10/06 12:06:41;;;;;;;7.90;3.57;;;23.70;99.90;;;;;;5035062;28;20606;-71
2022/10/06 12:09:25;;;;;;;7.80;2.70;;;23.30;99.90;;;;;;5033240;28;20453;-69
2022/10/06 12:12:18;;;;;;;6.17;2.17;;;23.20;99.90;;;;;;5035000;28;20806;-69
2022/10/06 12:15:12;;;;;;;5.07;2.30;;;23.00;99.90;;;;;;5018296;28;21018;-70
2022/10/06 12:17:45;;;;;;;3.70;2.23;;;23.00;99.90;;;;;;5036015;28;20479;-70
2022/10/06 12:20:19;;;;;;;4.30;2.10;;;23.10;99.90;;;;;;5035933;28;20887;-71
2022/10/06 12:23:00;;;;;;;11.33;2.40;;;23.10;99.90;;;;;;5037184;28;20441;-71
2022/10/06 12:25:29;;;;;;;3.77;2.20;;;22.70;99.90;;;;;;5037356;28;20433;-72
2022/10/06 12:28:23;;;;;;;7.90;3.17;;;22.70;99.90;;;;;;5041307;28;20418;-72
2022/10/06 12:31:09;;;;;;;6.90;2.40;;;22.60;99.90;;;;;;5020664;28;20472;-70
2022/10/06 12:33:37;;;;;;;8.03;2.70;;;22.60;99.90;;;;;;5036287;28;20456;-69
2022/10/06 12:36:15;;;;;;;8.37;4.10;;;22.50;99.90;;;;;;5020275;28;20469;-70
2022/10/06 12:38:59;;;;;;;6.30;3.30;;;22.80;99.90;;;;;;5035188;28;21248;-72
2022/10/06 12:41:56;;;;;;;5.80;2.60;;;22.90;99.90;;;;;;5030464;28;20991;-71
2022/10/06 12:44:29;;;;;;;6.30;2.50;;;23.30;99.90;;;;;;5034838;28;20456;-72
2022/10/06 12:46:59;;;;;;;8.10;2.37;;;23.50;99.90;;;;;;5035849;28;20438;-70
2022/10/06 12:49:58;;;;;;;6.40;2.70;;;23.70;99.90;;;;;;5037621;28;20564;-70
2022/10/06 12:52:26;;;;;;;5.87;2.60;;;23.60;99.90;;;;;;5015082;28;20917;-71
2022/10/06 12:55:27;;;;;;;6.17;2.80;;;23.90;99.90;;;;;;5041307;28;20906;-72
2022/10/06 12:57:53;;;;;;;6.17;3.10;;;24.00;99.90;;;;;;5025036;28;20450;-70
2022/10/06 13:00:26;;;;;;;4.57;2.60;;;24.00;99.90;;;;;;5037884;28;20458;-70
2022/10/06 13:02:54;;;;;;;4.90;2.50;;;24.10;99.90;;;;;;5035887;28;20652;-70
2022/10/06 13:05:21;;;;;;;6.90;2.87;;;24.20;99.90;;;;;;5038400;28;20645;-68
2022/10/06 13:07:59;;;;;;;10.07;2.70;;;23.80;99.90;;;;;;5019349;28;20438;-72
2022/10/06 13:10:25;;;;;;;7.50;2.60;;;24.30;99.90;;;;;;5036558;28;20435;-68
2022/10/06 13:12:51;;;;;;;3.33;1.93;;;24.20;99.90;;;;;;5022982;28;20916;-68
2022/10/06 13:15:46;;;;;;;3.97;2.70;;;24.40;99.90;;;;;;5032115;28;20454;-68